sensor_id;sensor_type;location;lat;lon;timestamp;temperature;humidity
51175;DHT22;37240;50.104;20.010;2024-03-17T00:03:17;14.10;99.90
51175;DHT22;37240;50.104;20.010;2024-03-17T00:08:18;14.10;99.90
51175;DHT22;37240;50.104;20.010;2024-03-17T00:13:19;14.10;99.90
51175;DHT22;37240;50.104;20.010;2024-03-17T00:18:19;14.00;99.90
51175;DHT22;37240;50.104;20.010;2024-03-17T00:23:20;14.00;99.90
51175;DHT22;37240;50.104;20.010;2024-03-17T00:28:20;14.00;99.90
51175;DHT22;37240;50.104;20.010;2024-03-17T00:33:21;14.00;99.90
51175;DHT22;37240;50.104;20.010;2024-03-17T00:38:21;14.00;99.90
51175;DHT22;37240;50.104;20.010;2024-03-17T00:43:22;13.90;99.90
51175;DHT22;37240;50.104;20.010;2024-03-17T00:48:22;13.70;99.90
51175;DHT22;37240;50.104;20.010;2024-03-17T00:53:23;13.50;99.90
51175;DHT22;37240;50.104;20.010;2024-03-17T00:58:23;13.30;99.90
51175;DHT22;37240;50.104;20.010;2024-03-17T01:03:24;13.20;99.90
51175;DHT22;37240;50.104;20.010;2024-03-17T01:08:25;13.00;99.90
51175;DHT22;37240;50.104;20.010;2024-03-17T01:13:25;12.90;99.90
51175;DHT22;37240;50.104;20.010;2024-03-17T01:18:26;12.80;99.90
51175;DHT22;37240;50.104;20.010;2024-03-17T01:23:26;12.70;99.90
51175;DHT22;37240;50.104;20.010;2024-03-17T01:28:27;12.60;99.90
51175;DHT22;37240;50.104;20.010;2024-03-17T01:33:28;12.50;99.90
51175;DHT22;37240;50.104;20.010;2024-03-17T01:38:29;12.50;99.90
51175;DHT22;37240;50.104;20.010;2024-03-17T01:43:29;12.50;99.90
51175;DHT22;37240;50.104;20.010;2024-03-17T01:48:30;12.50;99.90
51175;DHT22;37240;50.104;20.010;2024-03-17T01:53:31;12.50;99.90
51175;DHT22;37240;50.104;20.010;2024-03-17T01:58:32;12.30;99.30
51175;DHT22;37240;50.104;20.010;2024-03-17T02:03:33;12.20;99.10
51175;DHT22;37240;50.104;20.010;2024-03-17T02:08:50;12.20;98.70
51175;DHT22;37240;50.104;20.010;2024-03-17T02:13:52;12.10;97.60
51175;DHT22;37240;50.104;20.010;2024-03-17T02:18:56;12.00;96.80
51175;DHT22;37240;50.104;20.010;2024-03-17T02:23:57;12.00;97.00
51175;DHT22;37240;50.104;20.010;2024-03-17T02:28:57;12.00;97.20
51175;DHT22;37240;50.104;20.010;2024-03-17T02:33:58;12.00;97.70
51175;DHT22;37240;50.104;20.010;2024-03-17T02:38:58;11.90;97.60
51175;DHT22;37240;50.104;20.010;2024-03-17T02:43:59;12.00;97.30
51175;DHT22;37240;50.104;20.010;2024-03-17T02:48:59;12.00;96.80
51175;DHT22;37240;50.104;20.010;2024-03-17T02:54:00;12.10;96.30
51175;DHT22;37240;50.104;20.010;2024-03-17T02:59:00;12.00;95.40
51175;DHT22;37240;50.104;20.010;2024-03-17T03:04:01;11.90;95.00
51175;DHT22;37240;50.104;20.010;2024-03-17T03:09:02;11.90;94.90
51175;DHT22;37240;50.104;20.010;2024-03-17T03:14:02;11.90;95.20
51175;DHT22;37240;50.104;20.010;2024-03-17T03:19:03;11.90;95.30
51175;DHT22;37240;50.104;20.010;2024-03-17T03:24:03;11.90;95.30
51175;DHT22;37240;50.104;20.010;2024-03-17T03:29:04;11.90;95.30
51175;DHT22;37240;50.104;20.010;2024-03-17T03:34:05;11.80;95.50
51175;DHT22;37240;50.104;20.010;2024-03-17T03:39:05;11.70;95.60
51175;DHT22;37240;50.104;20.010;2024-03-17T03:44:06;11.70;95.60
51175;DHT22;37240;50.104;20.010;2024-03-17T03:49:06;11.80;95.60
51175;DHT22;37240;50.104;20.010;2024-03-17T03:54:07;11.70;95.60
51175;DHT22;37240;50.104;20.010;2024-03-17T03:59:07;11.70;95.60
51175;DHT22;37240;50.104;20.010;2024-03-17T04:04:08;11.60;95.70
51175;DHT22;37240;50.104;20.010;2024-03-17T04:09:08;11.60;95.60
51175;DHT22;37240;50.104;20.010;2024-03-17T04:14:09;11.60;95.60
51175;DHT22;37240;50.104;20.010;2024-03-17T04:19:09;11.60;95.80
51175;DHT22;37240;50.104;20.010;2024-03-17T04:24:10;11.50;96.10
51175;DHT22;37240;50.104;20.010;2024-03-17T04:29:10;11.50;96.10
51175;DHT22;37240;50.104;20.010;2024-03-17T04:34:11;11.50;96.50
51175;DHT22;37240;50.104;20.010;2024-03-17T04:39:11;11.50;96.30
51175;DHT22;37240;50.104;20.010;2024-03-17T04:44:12;11.40;96.20
51175;DHT22;37240;50.104;20.010;2024-03-17T04:49:12;11.30;96.00
51175;DHT22;37240;50.104;20.010;2024-03-17T04:54:13;11.20;95.80
51175;DHT22;37240;50.104;20.010;2024-03-17T04:59:14;11.10;95.50
51175;DHT22;37240;50.104;20.010;2024-03-17T05:04:14;11.00;94.60
51175;DHT22;37240;50.104;20.010;2024-03-17T05:09:18;11.00;94.50
51175;DHT22;37240;50.104;20.010;2024-03-17T05:14:19;10.80;94.40
51175;DHT22;37240;50.104;20.010;2024-03-17T05:19:20;10.80;94.20
51175;DHT22;37240;50.104;20.010;2024-03-17T05:24:20;10.70;93.60
51175;DHT22;37240;50.104;20.010;2024-03-17T05:29:21;10.70;93.70
51175;DHT22;37240;50.104;20.010;2024-03-17T05:34:21;10.70;93.30
51175;DHT22;37240;50.104;20.010;2024-03-17T05:39:22;10.70;93.20
51175;DHT22;37240;50.104;20.010;2024-03-17T05:44:23;10.90;93.00
51175;DHT22;37240;50.104;20.010;2024-03-17T05:49:23;11.20;93.30
51175;DHT22;37240;50.104;20.010;2024-03-17T05:54:24;11.30;90.40
51175;DHT22;37240;50.104;20.010;2024-03-17T05:59:24;11.60;90.20
51175;DHT22;37240;50.104;20.010;2024-03-17T06:04:25;12.00;90.00
51175;DHT22;37240;50.104;20.010;2024-03-17T06:09:25;12.30;87.40
51175;DHT22;37240;50.104;20.010;2024-03-17T06:14:26;12.60;83.40
51175;DHT22;37240;50.104;20.010;2024-03-17T06:19:26;12.90;82.90
51175;DHT22;37240;50.104;20.010;2024-03-17T06:24:28;13.20;80.60
51175;DHT22;37240;50.104;20.010;2024-03-17T06:29:29;13.40;76.20
51175;DHT22;37240;50.104;20.010;2024-03-17T06:34:29;13.70;74.80
51175;DHT22;37240;50.104;20.010;2024-03-17T06:39:30;13.90;73.40
51175;DHT22;37240;50.104;20.010;2024-03-17T06:44:30;14.20;70.70
51175;DHT22;37240;50.104;20.010;2024-03-17T06:49:31;14.50;67.80
51175;DHT22;37240;50.104;20.010;2024-03-17T06:54:31;14.80;67.30
51175;DHT22;37240;50.104;20.010;2024-03-17T06:59:35;15.00;62.40
51175;DHT22;37240;50.104;20.010;2024-03-17T07:04:36;15.20;62.50
51175;DHT22;37240;50.104;20.010;2024-03-17T07:09:36;15.30;61.30
51175;DHT22;37240;50.104;20.010;2024-03-17T07:14:37;15.40;61.00
51175;DHT22;37240;50.104;20.010;2024-03-17T07:19:37;15.60;60.10
51175;DHT22;37240;50.104;20.010;2024-03-17T07:24:38;15.90;61.60
51175;DHT22;37240;50.104;20.010;2024-03-17T07:29:39;16.00;60.60
51175;DHT22;37240;50.104;20.010;2024-03-17T07:34:39;16.20;58.60
51175;DHT22;37240;50.104;20.010;2024-03-17T07:39:40;16.40;59.00
51175;DHT22;37240;50.104;20.010;2024-03-17T07:44:43;16.60;58.50
51175;DHT22;37240;50.104;20.010;2024-03-17T07:49:46;16.80;56.00
51175;DHT22;37240;50.104;20.010;2024-03-17T07:54:47;16.80;54.30
51175;DHT22;37240;50.104;20.010;2024-03-17T07:59:50;17.00;54.70
51175;DHT22;37240;50.104;20.010;2024-03-17T08:04:50;16.90;52.80
51175;DHT22;37240;50.104;20.010;2024-03-17T08:09:51;16.90;53.30
51175;DHT22;37240;50.104;20.010;2024-03-17T08:14:51;16.80;51.50
51175;DHT22;37240;50.104;20.010;2024-03-17T08:19:52;17.00;51.90
51175;DHT22;37240;50.104;20.010;2024-03-17T08:24:52;17.00;49.60
51175;DHT22;37240;50.104;20.010;2024-03-17T08:29:53;17.00;52.10
51175;DHT22;37240;50.104;20.010;2024-03-17T08:34:53;17.10;49.70
51175;DHT22;37240;50.104;20.010;2024-03-17T08:39:54;17.10;49.30
51175;DHT22;37240;50.104;20.010;2024-03-17T08:44:54;17.20;49.40
51175;DHT22;37240;50.104;20.010;2024-03-17T08:49:55;17.20;49.70
51175;DHT22;37240;50.104;20.010;2024-03-17T08:54:55;17.20;49.40
51175;DHT22;37240;50.104;20.010;2024-03-17T08:59:56;17.10;48.40
51175;DHT22;37240;50.104;20.010;2024-03-17T09:04:56;17.00;48.30
51175;DHT22;37240;50.104;20.010;2024-03-17T09:09:57;16.80;48.10
51175;DHT22;37240;50.104;20.010;2024-03-17T09:14:57;16.70;49.40
51175;DHT22;37240;50.104;20.010;2024-03-17T09:19:58;16.80;49.30
51175;DHT22;37240;50.104;20.010;2024-03-17T09:24:58;16.50;49.10
51175;DHT22;37240;50.104;20.010;2024-03-17T09:29:59;16.70;49.30
51175;DHT22;37240;50.104;20.010;2024-03-17T09:35:00;16.60;49.90
51175;DHT22;37240;50.104;20.010;2024-03-17T09:40:00;16.70;49.50
51175;DHT22;37240;50.104;20.010;2024-03-17T09:45:01;16.80;50.00
51175;DHT22;37240;50.104;20.010;2024-03-17T09:50:02;16.60;47.70
51175;DHT22;37240;50.104;20.010;2024-03-17T09:55:09;16.50;48.70
51175;DHT22;37240;50.104;20.010;2024-03-17T10:00:11;16.30;48.10
51175;DHT22;37240;50.104;20.010;2024-03-17T10:05:24;16.10;48.70
51175;DHT22;37240;50.104;20.010;2024-03-17T10:10:25;16.20;49.70
51175;DHT22;37240;50.104;20.010;2024-03-17T10:15:25;16.10;48.40
51175;DHT22;37240;50.104;20.010;2024-03-17T10:20:26;16.00;49.10
51175;DHT22;37240;50.104;20.010;2024-03-17T10:25:28;16.00;49.10
51175;DHT22;37240;50.104;20.010;2024-03-17T10:30:29;15.60;48.80
51175;DHT22;37240;50.104;20.010;2024-03-17T10:35:34;15.60;51.00
51175;DHT22;37240;50.104;20.010;2024-03-17T10:40:35;15.70;51.10
51175;DHT22;37240;50.104;20.010;2024-03-17T10:45:37;15.70;48.60
51175;DHT22;37240;50.104;20.010;2024-03-17T10:50:39;15.40;49.20
51175;DHT22;37240;50.104;20.010;2024-03-17T10:55:43;15.30;49.20
51175;DHT22;37240;50.104;20.010;2024-03-17T11:00:44;15.30;50.00
51175;DHT22;37240;50.104;20.010;2024-03-17T11:05:48;15.10;50.00
51175;DHT22;37240;50.104;20.010;2024-03-17T11:10:51;14.90;49.90
51175;DHT22;37240;50.104;20.010;2024-03-17T11:15:52;14.90;50.40
51175;DHT22;37240;50.104;20.010;2024-03-17T11:21:03;14.90;49.90
51175;DHT22;37240;50.104;20.010;2024-03-17T11:26:05;14.80;48.70
51175;DHT22;37240;50.104;20.010;2024-03-17T11:36:37;14.30;49.50
51175;DHT22;37240;50.104;20.010;2024-03-17T11:41:42;14.40;50.10
51175;DHT22;37240;50.104;20.010;2024-03-17T11:46:43;14.50;49.40
51175;DHT22;37240;50.104;20.010;2024-03-17T11:51:45;14.50;50.10
51175;DHT22;37240;50.104;20.010;2024-03-17T11:56:49;14.60;50.60
51175;DHT22;37240;50.104;20.010;2024-03-17T12:01:50;14.60;48.90
51175;DHT22;37240;50.104;20.010;2024-03-17T12:06:52;14.50;50.00
51175;DHT22;37240;50.104;20.010;2024-03-17T12:17:13;14.80;52.00
51175;DHT22;37240;50.104;20.010;2024-03-17T12:22:22;14.90;50.60
51175;DHT22;37240;50.104;20.010;2024-03-17T12:27:24;14.70;49.70
51175;DHT22;37240;50.104;20.010;2024-03-17T12:32:25;14.80;50.20
51175;DHT22;37240;50.104;20.010;2024-03-17T12:37:27;14.80;49.70
51175;DHT22;37240;50.104;20.010;2024-03-17T12:42:28;14.70;48.50
51175;DHT22;37240;50.104;20.010;2024-03-17T12:47:30;14.40;48.50
51175;DHT22;37240;50.104;20.010;2024-03-17T12:52:34;14.40;48.60
51175;DHT22;37240;50.104;20.010;2024-03-17T12:57:34;14.30;49.10
51175;DHT22;37240;50.104;20.010;2024-03-17T13:02:41;14.30;48.80
51175;DHT22;37240;50.104;20.010;2024-03-17T13:07:42;14.30;48.90
51175;DHT22;37240;50.104;20.010;2024-03-17T13:12:44;14.30;49.00
51175;DHT22;37240;50.104;20.010;2024-03-17T13:17:45;14.20;48.50
51175;DHT22;37240;50.104;20.010;2024-03-17T13:22:46;14.20;48.20
51175;DHT22;37240;50.104;20.010;2024-03-17T13:27:47;14.10;48.50
51175;DHT22;37240;50.104;20.010;2024-03-17T13:32:47;14.20;49.40
51175;DHT22;37240;50.104;20.010;2024-03-17T13:37:49;14.20;48.50
51175;DHT22;37240;50.104;20.010;2024-03-17T13:42:52;14.10;47.90
51175;DHT22;37240;50.104;20.010;2024-03-17T13:47:56;14.00;49.60
51175;DHT22;37240;50.104;20.010;2024-03-17T13:52:57;14.10;50.30
51175;DHT22;37240;50.104;20.010;2024-03-17T13:57:58;14.10;49.40
51175;DHT22;37240;50.104;20.010;2024-03-17T14:02:58;14.00;48.00
51175;DHT22;37240;50.104;20.010;2024-03-17T14:07:59;14.00;48.40
51175;DHT22;37240;50.104;20.010;2024-03-17T14:12:59;13.90;48.90
51175;DHT22;37240;50.104;20.010;2024-03-17T14:18:00;14.00;49.10
51175;DHT22;37240;50.104;20.010;2024-03-17T14:23:00;14.00;48.40
51175;DHT22;37240;50.104;20.010;2024-03-17T14:28:01;14.00;48.10
51175;DHT22;37240;50.104;20.010;2024-03-17T14:33:01;14.00;48.70
51175;DHT22;37240;50.104;20.010;2024-03-17T14:38:02;14.00;48.40
51175;DHT22;37240;50.104;20.010;2024-03-17T14:43:02;13.90;48.60
51175;DHT22;37240;50.104;20.010;2024-03-17T14:48:03;13.80;48.60
51175;DHT22;37240;50.104;20.010;2024-03-17T14:53:04;13.70;47.80
51175;DHT22;37240;50.104;20.010;2024-03-17T14:58:04;13.70;47.60
51175;DHT22;37240;50.104;20.010;2024-03-17T15:03:05;13.70;48.60
51175;DHT22;37240;50.104;20.010;2024-03-17T15:08:05;13.70;48.90
51175;DHT22;37240;50.104;20.010;2024-03-17T15:13:06;13.70;49.90
51175;DHT22;37240;50.104;20.010;2024-03-17T15:18:06;13.80;50.80
51175;DHT22;37240;50.104;20.010;2024-03-17T15:23:07;13.90;51.10
51175;DHT22;37240;50.104;20.010;2024-03-17T15:28:07;13.80;51.30
51175;DHT22;37240;50.104;20.010;2024-03-17T15:33:08;13.70;51.50
51175;DHT22;37240;50.104;20.010;2024-03-17T15:38:09;13.60;52.90
51175;DHT22;37240;50.104;20.010;2024-03-17T15:43:09;13.50;55.40
51175;DHT22;37240;50.104;20.010;2024-03-17T15:48:10;13.30;55.60
51175;DHT22;37240;50.104;20.010;2024-03-17T15:53:10;13.30;56.20
51175;DHT22;37240;50.104;20.010;2024-03-17T15:58:11;13.20;56.00
51175;DHT22;37240;50.104;20.010;2024-03-17T16:03:12;13.10;56.40
51175;DHT22;37240;50.104;20.010;2024-03-17T16:08:12;13.00;56.50
51175;DHT22;37240;50.104;20.010;2024-03-17T16:13:14;12.80;56.60
51175;DHT22;37240;50.104;20.010;2024-03-17T16:18:15;12.70;57.20
51175;DHT22;37240;50.104;20.010;2024-03-17T16:23:17;12.70;57.40
51175;DHT22;37240;50.104;20.010;2024-03-17T16:28:18;12.60;56.90
51175;DHT22;37240;50.104;20.010;2024-03-17T16:33:19;12.50;56.60
51175;DHT22;37240;50.104;20.010;2024-03-17T16:38:19;12.30;56.80
51175;DHT22;37240;50.104;20.010;2024-03-17T16:43:46;12.20;56.90
51175;DHT22;37240;50.104;20.010;2024-03-17T16:48:48;12.20;57.50
51175;DHT22;37240;50.104;20.010;2024-03-17T16:53:49;12.10;57.80
51175;DHT22;37240;50.104;20.010;2024-03-17T16:58:50;12.10;57.80
51175;DHT22;37240;50.104;20.010;2024-03-17T17:03:51;12.00;58.10
51175;DHT22;37240;50.104;20.010;2024-03-17T17:08:51;12.00;57.90
51175;DHT22;37240;50.104;20.010;2024-03-17T17:13:52;11.90;57.80
51175;DHT22;37240;50.104;20.010;2024-03-17T17:19:02;11.80;57.30
51175;DHT22;37240;50.104;20.010;2024-03-17T17:24:03;11.70;57.90
51175;DHT22;37240;50.104;20.010;2024-03-17T17:29:03;11.60;57.40
51175;DHT22;37240;50.104;20.010;2024-03-17T17:34:04;11.60;56.90
51175;DHT22;37240;50.104;20.010;2024-03-17T17:39:04;11.60;57.20
51175;DHT22;37240;50.104;20.010;2024-03-17T17:44:05;11.60;57.10
51175;DHT22;37240;50.104;20.010;2024-03-17T17:49:05;11.60;57.20
51175;DHT22;37240;50.104;20.010;2024-03-17T17:54:06;11.60;56.60
51175;DHT22;37240;50.104;20.010;2024-03-17T17:59:06;11.50;56.40
51175;DHT22;37240;50.104;20.010;2024-03-17T18:04:07;11.50;56.50
51175;DHT22;37240;50.104;20.010;2024-03-17T18:09:07;11.50;56.40
51175;DHT22;37240;50.104;20.010;2024-03-17T18:14:08;11.50;56.20
51175;DHT22;37240;50.104;20.010;2024-03-17T18:19:08;11.40;56.20
51175;DHT22;37240;50.104;20.010;2024-03-17T18:24:09;11.40;56.50
51175;DHT22;37240;50.104;20.010;2024-03-17T18:29:10;11.30;56.50
51175;DHT22;37240;50.104;20.010;2024-03-17T18:34:10;11.20;56.70
51175;DHT22;37240;50.104;20.010;2024-03-17T18:39:11;11.20;56.90
51175;DHT22;37240;50.104;20.010;2024-03-17T18:44:11;11.20;56.70
51175;DHT22;37240;50.104;20.010;2024-03-17T18:49:13;11.20;57.10
51175;DHT22;37240;50.104;20.010;2024-03-17T18:54:13;11.10;57.30
51175;DHT22;37240;50.104;20.010;2024-03-17T18:59:14;11.00;57.50
51175;DHT22;37240;50.104;20.010;2024-03-17T19:04:15;11.00;57.50
51175;DHT22;37240;50.104;20.010;2024-03-17T19:09:15;11.00;58.10
51175;DHT22;37240;50.104;20.010;2024-03-17T19:14:16;10.80;58.00
51175;DHT22;37240;50.104;20.010;2024-03-17T19:19:16;10.80;58.30
51175;DHT22;37240;50.104;20.010;2024-03-17T19:24:17;10.70;58.20
51175;DHT22;37240;50.104;20.010;2024-03-17T19:29:17;10.60;58.80
51175;DHT22;37240;50.104;20.010;2024-03-17T19:34:18;10.70;58.80
51175;DHT22;37240;50.104;20.010;2024-03-17T19:39:19;10.70;58.90
51175;DHT22;37240;50.104;20.010;2024-03-17T19:44:19;10.60;59.10
51175;DHT22;37240;50.104;20.010;2024-03-17T19:49:20;10.50;59.60
51175;DHT22;37240;50.104;20.010;2024-03-17T19:54:20;10.30;61.10
51175;DHT22;37240;50.104;20.010;2024-03-17T19:59:21;10.30;61.60
51175;DHT22;37240;50.104;20.010;2024-03-17T20:04:21;10.30;62.00
51175;DHT22;37240;50.104;20.010;2024-03-17T20:09:22;10.30;62.10
51175;DHT22;37240;50.104;20.010;2024-03-17T20:14:22;10.30;63.00
51175;DHT22;37240;50.104;20.010;2024-03-17T20:19:23;10.20;65.80
51175;DHT22;37240;50.104;20.010;2024-03-17T20:24:23;10.20;67.40
51175;DHT22;37240;50.104;20.010;2024-03-17T20:29:24;10.10;69.20
51175;DHT22;37240;50.104;20.010;2024-03-17T20:34:24;10.00;70.80
51175;DHT22;37240;50.104;20.010;2024-03-17T20:39:25;9.90;72.40
51175;DHT22;37240;50.104;20.010;2024-03-17T20:44:25;9.90;73.60
51175;DHT22;37240;50.104;20.010;2024-03-17T20:49:26;9.90;74.30
51175;DHT22;37240;50.104;20.010;2024-03-17T20:54:26;10.00;73.60
51175;DHT22;37240;50.104;20.010;2024-03-17T20:59:27;10.00;73.10
51175;DHT22;37240;50.104;20.010;2024-03-17T21:04:27;9.90;71.20
51175;DHT22;37240;50.104;20.010;2024-03-17T21:09:31;9.90;70.20
51175;DHT22;37240;50.104;20.010;2024-03-17T21:14:31;9.80;69.00
51175;DHT22;37240;50.104;20.010;2024-03-17T21:19:32;9.70;69.40
51175;DHT22;37240;50.104;20.010;2024-03-17T21:24:32;9.70;69.30
51175;DHT22;37240;50.104;20.010;2024-03-17T21:29:33;9.70;69.40
51175;DHT22;37240;50.104;20.010;2024-03-17T21:34:33;9.70;69.80
51175;DHT22;37240;50.104;20.010;2024-03-17T21:39:34;9.80;69.90
51175;DHT22;37240;50.104;20.010;2024-03-17T21:44:44;9.80;69.80
51175;DHT22;37240;50.104;20.010;2024-03-17T21:49:47;9.80;71.00
51175;DHT22;37240;50.104;20.010;2024-03-17T21:54:51;9.70;71.00
51175;DHT22;37240;50.104;20.010;2024-03-17T21:59:52;9.60;71.10
51175;DHT22;37240;50.104;20.010;2024-03-17T22:04:59;9.50;71.50
51175;DHT22;37240;50.104;20.010;2024-03-17T22:10:00;9.50;71.00
51175;DHT22;37240;50.104;20.010;2024-03-17T22:15:01;9.40;71.60
51175;DHT22;37240;50.104;20.010;2024-03-17T22:20:02;9.40;72.00
51175;DHT22;37240;50.104;20.010;2024-03-17T22:25:03;9.50;71.90
51175;DHT22;37240;50.104;20.010;2024-03-17T22:30:04;9.40;71.20
51175;DHT22;37240;50.104;20.010;2024-03-17T22:35:05;9.30;71.20
51175;DHT22;37240;50.104;20.010;2024-03-17T22:40:06;9.30;71.80
51175;DHT22;37240;50.104;20.010;2024-03-17T22:45:07;9.30;69.90
51175;DHT22;37240;50.104;20.010;2024-03-17T22:50:08;9.20;68.20
51175;DHT22;37240;50.104;20.010;2024-03-17T22:55:08;9.10;66.20
51175;DHT22;37240;50.104;20.010;2024-03-17T23:00:09;9.10;65.80
51175;DHT22;37240;50.104;20.010;2024-03-17T23:05:10;9.00;65.70
51175;DHT22;37240;50.104;20.010;2024-03-17T23:10:11;8.90;65.40
51175;DHT22;37240;50.104;20.010;2024-03-17T23:15:11;8.90;65.50
51175;DHT22;37240;50.104;20.010;2024-03-17T23:20:12;8.80;65.20
51175;DHT22;37240;50.104;20.010;2024-03-17T23:25:14;8.90;65.40
51175;DHT22;37240;50.104;20.010;2024-03-17T23:30:14;8.80;64.80
51175;DHT22;37240;50.104;20.010;2024-03-17T23:35:15;8.70;64.40
51175;DHT22;37240;50.104;20.010;2024-03-17T23:40:15;8.80;64.10
51175;DHT22;37240;50.104;20.010;2024-03-17T23:45:16;8.80;63.50
51175;DHT22;37240;50.104;20.010;2024-03-17T23:50:17;8.70;62.00
51175;DHT22;37240;50.104;20.010;2024-03-17T23:55:17;8.70;61.10
